| time (UTC) | temp F | wind direction | speed knots | gust knots | rain 1hr in | rain 24hr in | rain mn in | humidity % | barometer mb |
| 20260507013212 | 46 | 144 | 8.7 | 0.0 | 0.00 | 0.00 | 0.00 | 93 | 1011.4 |
| 20260507010211 | 45 | 187 | 5.2 | 0.0 | 0.00 | 0.00 | 0.00 | 93 | 1011.5 |
| 20260507003209 | 45 | 176 | 4.3 | 0.0 | 0.00 | 0.00 | 0.00 | 92 | 1011.5 |
| 20260507000209 | 46 | 244 | 3.5 | 0.0 | 0.00 | 0.00 | 0.00 | 91 | 1011.6 |
| 20260506233209 | 47 | 236 | 7.8 | 0.0 | 0.00 | 0.00 | 0.00 | 91 | 1011.4 |
| 20260506230209 | 47 | 242 | 7.0 | 0.0 | 0.00 | 0.00 | 0.00 | 91 | 1011.2 |
| 20260506223209 | 48 | 200 | 6.1 | 0.0 | 0.00 | 0.00 | 0.00 | 91 | 1011.3 |
| 20260506213209 | 48 | 221 | 5.2 | 0.0 | 0.00 | 0.00 | 0.24 | 91 | 1011.1 |
| 20260506210210 | 48 | 208 | 5.2 | 0.0 | 0.00 | 0.00 | 0.24 | 90 | 1010.9 |
| 20260506203210 | 49 | 262 | 8.7 | 0.0 | 0.00 | 0.00 | 0.24 | 90 | 1010.7 |
| 20260506200210 | 49 | 257 | 6.1 | 0.0 | 0.00 | 0.00 | 0.24 | 91 | 1010.6 |
| 20260506193215 | 49 | 255 | 6.1 | 0.0 | 0.00 | 0.00 | 0.24 | 90 | 1010.5 |
| 20260506190211 | 49 | 188 | 7.0 | 0.0 | 0.00 | 0.00 | 0.24 | 89 | 1009.9 |
| 20260506183209 | 50 | 229 | 10.4 | 0.0 | 0.00 | 0.00 | 0.24 | 87 | 1009.7 |
| 20260506180216 | 50 | 248 | 13.0 | 0.0 | 0.00 | 0.00 | 0.24 | 88 | 1009.2 |
| 20260506173210 | 50 | 251 | 12.2 | 0.0 | 0.00 | 0.00 | 0.24 | 88 | 1008.9 |
| 20260506170215 | 50 | 248 | 12.2 | 0.0 | 0.00 | 0.00 | 0.24 | 87 | 1008.2 |
| 20260506163210 | 50 | 269 | 13.9 | 0.0 | 0.00 | 0.00 | 0.24 | 89 | 1008.6 |
| 20260506160210 | 51 | 227 | 17.4 | 0.0 | 0.00 | 0.00 | 0.24 | 90 | 1008.4 |
| 20260506153210 | 52 | 284 | 17.4 | 0.0 | 0.00 | 0.00 | 0.24 | 90 | 1007.8 |
| 20260506150210 | 60 | 223 | 20.0 | 0.0 | 0.00 | 0.00 | 0.02 | 76 | 1006.4 |
| 20260506143210 | 62 | 217 | 4.3 | 0.0 | 0.00 | 0.00 | 0.02 | 71 | 1005.5 |
| 20260506140210 | 59 | 186 | 7.0 | 0.0 | 0.00 | 0.00 | 0.02 | 80 | 1005.6 |
| 20260506133211 | 62 | 190 | 4.3 | 0.0 | 0.00 | 0.00 | 0.00 | 66 | 1006.1 |
| 20260506130211 | 63 | 234 | 2.6 | 0.0 | 0.00 | 0.00 | 0.00 | 62 | 1006.0 |
| 20260506123210 | 63 | 86 | 4.3 | 0.0 | 0.00 | 0.00 | 0.00 | 60 | 1005.6 |
| 20260506120210 | 63 | 48 | 7.8 | 0.0 | 0.00 | 0.00 | 0.00 | 62 | 1005.3 |
| 20260506113217 | 63 | 31 | 6.1 | 0.0 | 0.00 | 0.00 | 0.00 | 63 | 1005.7 |
| 20260506110210 | 62 | 79 | 6.1 | 0.0 | 0.00 | 0.00 | 0.00 | 61 | 1006.1 |
| 20260506100213 | 60 | 26 | 4.3 | 0.0 | 0.00 | 0.00 | 0.00 | 67 | 1006.6 |
| 20260506093211 | 60 | 206 | 1.7 | 0.0 | 0.00 | 0.00 | 0.00 | 70 | 1006.7 |
| 20260506090211 | 59 | 196 | 2.6 | 0.0 | 0.00 | 0.00 | 0.00 | 76 | 1006.8 |
| 20260506083211 | 56 | 355 | 1.7 | 0.0 | 0.00 | 0.00 | 0.00 | 81 | 1006.6 |
| 20260506080212 | 55 | 32 | 2.6 | 0.0 | 0.00 | 0.00 | 0.00 | 82 | 1006.6 |
| 20260506073211 | 55 | 219 | 0.9 | 0.0 | 0.00 | 0.00 | 0.00 | 84 | 1006.9 |
| 20260506070212 | 54 | 204 | 3.5 | 0.0 | 0.00 | 0.00 | 0.00 | 86 | 1007.1 |
| 20260506060210 | 51 | 209 | 2.6 | 0.0 | 0.00 | 0.00 | 0.00 | 92 | 1006.9 |
| 20260506050211 | 48 | 129 | 2.6 | 0.0 | 0.00 | 0.00 | 0.00 | 95 | 1007.3 |
| 20260506043211 | 47 | 182 | 6.1 | 0.0 | 0.00 | 0.00 | 0.00 | 95 | 1007.5 |
| 20260506040211 | 47 | 232 | 1.7 | 0.0 | 0.00 | 0.00 | 0.00 | 94 | 1007.8 |
| 20260506033211 | 47 | 181 | 5.2 | 0.0 | 0.00 | 0.00 | 0.00 | 95 | 1008.0 |
| 20260506030212 | 47 | 200 | 5.2 | 0.0 | 0.00 | 0.00 | 0.00 | 95 | 1008.3 |
| 20260506023211 | 48 | 179 | 5.2 | 0.0 | 0.00 | 0.00 | 0.00 | 95 | 1008.4 |
| 20260506020212 | 49 | 160 | 6.1 | 0.0 | 0.00 | 0.00 | 0.00 | 95 | 1008.7 |